Time;durP1;ratioP1;P1;durP2;ratioP2;P2;SDS_P1;SDS_P2;PMS_P1;PMS_P2;Temp;Humidity;BMP_temperature;BMP_pressure;BME280_temperature;BME280_humidity;BME280_pressure;Samples;Min_cycle;Max_cycle;Signal;HPM_P1;HPM_P2
2022/10/05 00:01:00;;;;;;;13.60;6.55;;;;;;;;;;6130577;23;20069;-79
2022/10/05 00:03:32;;;;;;;13.57;6.75;;;;;;;;;;6157569;23;20021;-81
2022/10/05 00:05:59;;;;;;;11.82;6.68;;;;;;;;;;6157356;23;20022;-81
2022/10/05 00:08:28;;;;;;;11.90;6.95;;;;;;;;;;6181579;23;20026;-81
2022/10/05 00:10:55;;;;;;;12.38;6.88;;;;;;;;;;6186036;23;20025;-81
2022/10/05 00:13:22;;;;;;;11.43;6.05;;;;;;;;;;6185964;23;20033;-81
2022/10/05 00:15:49;;;;;;;14.65;6.18;;;;;;;;;;6186708;23;20036;-80
2022/10/05 00:18:17;;;;;;;11.10;5.93;;;;;;;;;;6184762;23;20021;-81
2022/10/05 00:20:44;;;;;;;12.02;6.07;;;;;;;;;;6185601;23;20061;-80
2022/10/05 00:23:16;;;;;;;15.57;5.93;;;;;;;;;;6186559;23;20010;-80
2022/10/05 00:25:43;;;;;;;12.32;5.80;;;;;;;;;;6184770;23;20033;-79
2022/10/05 00:28:28;;;;;;;10.15;5.43;;;;;;;;;;6187077;23;20108;-80
2022/10/05 00:30:56;;;;;;;10.63;5.32;;;;;;;;;;6184155;23;21353;-83
2022/10/05 00:33:22;;;;;;;10.73;5.50;;;;;;;;;;6185012;23;20030;-78
2022/10/05 00:35:49;;;;;;;11.88;5.43;;;;;;;;;;6184663;23;20033;-80
2022/10/05 00:38:15;;;;;;;9.50;5.13;;;;;;;;;;6185772;23;20053;-79
2022/10/05 00:40:54;;;;;;;12.65;5.50;;;;;;;;;;6184950;23;20037;-80
2022/10/05 00:43:35;;;;;;;9.75;5.03;;;;;;;;;;6186239;23;20033;-80
2022/10/05 00:46:01;;;;;;;;;;;;;;;;;;6185347;23;20067;-80
2022/10/05 00:48:41;;;;;;;10.13;5.10;;;;;;;;;;6182561;23;45954;-80
2022/10/05 00:51:07;;;;;;;8.90;5.13;;;;;;;;;;6185959;23;20029;-80
2022/10/05 00:53:52;;;;;;;10.57;5.47;;;;;;;;;;6184397;23;20467;-78
2022/10/05 00:56:37;;;;;;;11.02;5.65;;;;;;;;;;6186582;23;20526;-80
2022/10/05 00:59:10;;;;;;;11.52;5.63;;;;;;;;;;6185533;23;20025;-79
2022/10/05 01:01:39;;;;;;;10.73;5.30;;;;;;;;;;6184017;23;20032;-81
2022/10/05 01:04:21;;;;;;;11.10;5.97;;;;;;;;;;6185184;23;20024;-80
2022/10/05 01:06:50;;;;;;;13.75;6.40;;;;;;;;;;6178616;23;20408;-79
2022/10/05 01:09:19;;;;;;;11.63;6.28;;;;;;;;;;6131067;23;20026;-81
2022/10/05 01:11:51;;;;;;;11.68;6.10;;;;;;;;;;6130171;23;20030;-80
2022/10/05 01:14:31;;;;;;;17.25;6.55;;;;;;;;;;6130509;23;20018;-80
2022/10/05 01:17:19;;;;;;;11.13;6.47;;;;;;;;;;6156282;23;20022;-79
2022/10/05 01:19:48;;;;;;;10.50;6.18;;;;;;;;;;6156271;23;20030;-78
2022/10/05 01:22:15;;;;;;;14.38;6.75;;;;;;;;;;6156313;23;20383;-80
2022/10/05 01:24:53;;;;;;;15.07;6.38;;;;;;;;;;6156173;23;20562;-79
2022/10/05 01:27:31;;;;;;;13.73;6.30;;;;;;;;;;6156405;23;20030;-79
2022/10/05 01:30:03;;;;;;;12.30;6.03;;;;;;;;;;6130220;23;20063;-78
2022/10/05 01:32:32;;;;;;;13.45;6.63;;;;;;;;;;6130248;23;20890;-80
2022/10/05 01:35:19;;;;;;;15.02;5.80;;;;;;;;;;6156357;23;20033;-83
2022/10/05 01:37:45;;;;;;;16.80;7.30;;;;;;;;;;6095850;23;20022;-79
2022/10/05 01:40:14;;;;;;;12.23;6.75;;;;;;;;;;6130113;23;20034;-80
2022/10/05 01:42:48;;;;;;;13.23;7.07;;;;;;;;;;6130635;23;20033;-82
2022/10/05 01:45:27;;;;;;;12.68;7.00;;;;;;;;;;6129242;23;20030;-77
2022/10/05 01:47:58;;;;;;;12.57;7.15;;;;;;;;;;6128343;23;20040;-80
2022/10/05 01:50:38;;;;;;;16.17;7.35;;;;;;;;;;6154676;23;20458;-78
2022/10/05 01:53:31;;;;;;;13.40;7.20;;;;;;;;;;6155056;23;20034;-79
2022/10/05 01:56:06;;;;;;;12.90;7.10;;;;;;;;;;6155144;23;20107;-80
2022/10/05 01:58:51;;;;;;;15.43;7.78;;;;;;;;;;6129057;23;20479;-79
2022/10/05 02:01:27;;;;;;;13.38;6.95;;;;;;;;;;6155351;23;20083;-84
2022/10/05 02:04:07;;;;;;;15.25;7.38;;;;;;;;;;6155731;23;20592;-79
2022/10/05 02:06:37;;;;;;;12.70;6.88;;;;;;;;;;6129547;23;20520;-80
2022/10/05 02:09:06;;;;;;;13.70;7.30;;;;;;;;;;6155512;23;20565;-78
2022/10/05 02:11:33;;;;;;;16.77;7.50;;;;;;;;;;6154596;23;20026;-81
2022/10/05 02:14:01;;;;;;;17.38;7.18;;;;;;;;;;6155411;23;20018;-80
2022/10/05 02:16:27;;;;;;;14.93;7.47;;;;;;;;;;6155269;23;20022;-77
2022/10/05 02:19:13;;;;;;;14.65;7.13;;;;;;;;;;6155187;23;20033;-79
2022/10/05 02:21:40;;;;;;;16.30;7.72;;;;;;;;;;6155189;23;20030;-80
2022/10/05 02:24:10;;;;;;;15.77;7.68;;;;;;;;;;6128625;23;20826;-81
2022/10/05 02:26:37;;;;;;;15.60;7.15;;;;;;;;;;6157232;23;20022;-80
2022/10/05 02:29:09;;;;;;;17.83;7.85;;;;;;;;;;6157792;23;20026;-80
2022/10/05 02:31:51;;;;;;;16.80;7.53;;;;;;;;;;6131317;23;20652;-81
2022/10/05 02:34:18;;;;;;;13.18;7.22;;;;;;;;;;6131036;23;20013;-83
2022/10/05 02:36:45;;;;;;;15.10;7.00;;;;;;;;;;6130137;23;20465;-79
2022/10/05 02:39:24;;;;;;;13.43;7.10;;;;;;;;;;6131772;23;20108;-80
2022/10/05 02:42:01;;;;;;;15.07;7.30;;;;;;;;;;6130456;23;20037;-80
2022/10/05 02:44:27;;;;;;;12.65;7.40;;;;;;;;;;6157216;23;20025;-79
2022/10/05 02:46:59;;;;;;;15.27;7.65;;;;;;;;;;6130777;23;20029;-79
2022/10/05 02:49:25;;;;;;;15.77;7.68;;;;;;;;;;6129949;23;20030;-80
2022/10/05 02:51:55;;;;;;;14.10;7.55;;;;;;;;;;6128605;23;20026;-81
2022/10/05 02:54:27;;;;;;;14.15;7.30;;;;;;;;;;6156931;23;20383;-80
2022/10/05 02:56:59;;;;;;;15.18;6.60;;;;;;;;;;6156949;23;20049;-79
2022/10/05 02:59:37;;;;;;;14.10;6.90;;;;;;;;;;6131407;23;20030;-81
2022/10/05 03:02:09;;;;;;;14.18;7.05;;;;;;;;;;6155833;23;20034;-80
2022/10/05 03:04:58;;;;;;;14.45;7.15;;;;;;;;;;6157244;23;20026;-83
2022/10/05 03:07:38;;;;;;;13.35;6.88;;;;;;;;;;6156963;23;20147;-80
2022/10/05 03:10:13;;;;;;;14.63;6.95;;;;;;;;;;6157105;23;20030;-79
2022/10/05 03:12:39;;;;;;;16.48;7.65;;;;;;;;;;6157440;23;20033;-83
2022/10/05 03:15:12;;;;;;;14.55;7.88;;;;;;;;;;6131349;23;20030;-82
2022/10/05 03:17:47;;;;;;;14.00;6.90;;;;;;;;;;6130655;23;20096;-81
2022/10/05 03:20:23;;;;;;;12.95;6.85;;;;;;;;;;6131639;23;20030;-80
2022/10/05 03:22:52;;;;;;;13.88;7.25;;;;;;;;;;6155027;23;20041;-79
2022/10/05 03:25:39;;;;;;;13.32;7.10;;;;;;;;;;6154745;23;20026;-80
2022/10/05 03:28:15;;;;;;;12.95;7.30;;;;;;;;;;6156867;23;20051;-78
2022/10/05 03:31:01;;;;;;;17.20;7.30;;;;;;;;;;6156572;23;20068;-81
2022/10/05 03:33:47;;;;;;;11.98;6.53;;;;;;;;;;6156627;23;20026;-80
2022/10/05 03:36:21;;;;;;;13.20;6.53;;;;;;;;;;6130299;23;20026;-79
2022/10/05 03:39:10;;;;;;;14.20;7.50;;;;;;;;;;6131201;23;20030;-81
2022/10/05 03:41:43;;;;;;;13.55;6.85;;;;;;;;;;6119455;23;20030;-81
2022/10/05 03:44:15;;;;;;;14.38;7.00;;;;;;;;;;6131132;23;20029;-83
2022/10/05 03:47:01;;;;;;;11.07;6.60;;;;;;;;;;6156582;23;20029;-81
2022/10/05 03:49:46;;;;;;;14.45;6.78;;;;;;;;;;6129469;23;20026;-79
2022/10/05 03:52:15;;;;;;;12.98;6.53;;;;;;;;;;6128849;23;20052;-78
2022/10/05 03:54:44;;;;;;;10.77;5.78;;;;;;;;;;6128748;23;20065;-80
2022/10/05 03:57:14;;;;;;;12.97;6.60;;;;;;;;;;6154757;23;20025;-80
2022/10/05 03:59:40;;;;;;;11.38;6.22;;;;;;;;;;6154670;23;20030;-80
2022/10/05 04:02:14;;;;;;;13.75;6.72;;;;;;;;;;6128934;23;20030;-79
2022/10/05 04:04:48;;;;;;;11.57;6.22;;;;;;;;;;6155265;23;20034;-80
2022/10/05 04:07:24;;;;;;;12.07;5.93;;;;;;;;;;6154898;23;20465;-80
2022/10/05 04:09:51;;;;;;;11.80;6.60;;;;;;;;;;6128908;23;20411;-83
2022/10/05 04:12:22;;;;;;;11.93;5.43;;;;;;;;;;6155397;23;20030;-78
2022/10/05 04:14:59;;;;;;;13.07;6.22;;;;;;;;;;6128879;23;20026;-79
2022/10/05 04:17:34;;;;;;;11.63;6.00;;;;;;;;;;6154037;23;20026;-79
2022/10/05 04:20:03;;;;;;;11.32;5.97;;;;;;;;;;6154064;23;20034;-80
2022/10/05 04:22:34;;;;;;;12.68;6.35;;;;;;;;;;6129501;23;20026;-77
2022/10/05 04:25:06;;;;;;;11.55;5.50;;;;;;;;;;6154012;23;20029;-79
2022/10/05 04:27:35;;;;;;;10.00;6.20;;;;;;;;;;6127684;23;20030;-79
2022/10/05 04:30:04;;;;;;;10.07;6.22;;;;;;;;;;6153752;23;20037;-82
2022/10/05 04:32:48;;;;;;;12.27;6.00;;;;;;;;;;6154221;23;20037;-78
2022/10/05 04:35:24;;;;;;;11.73;6.75;;;;;;;;;;6154856;23;20030;-78
2022/10/05 04:37:56;;;;;;;9.27;6.00;;;;;;;;;;6129672;23;20080;-79
2022/10/05 04:40:41;;;;;;;11.13;5.78;;;;;;;;;;6155812;23;20030;-80
2022/10/05 04:43:27;;;;;;;9.30;5.38;;;;;;;;;;6130345;23;20026;-79
2022/10/05 04:45:56;;;;;;;9.25;5.90;;;;;;;;;;6155140;23;20034;-79
2022/10/05 04:48:43;;;;;;;10.52;6.03;;;;;;;;;;6154890;23;20037;-83
2022/10/05 04:51:31;;;;;;;9.32;5.90;;;;;;;;;;6155551;23;20033;-78
2022/10/05 04:54:04;;;;;;;9.20;4.32;;;;;;;;;;6155961;23;20490;-80
2022/10/05 04:56:35;;;;;;;7.40;3.97;;;;;;;;;;6154636;23;20018;-78
2022/10/05 04:59:27;;;;;;;9.15;4.65;;;;;;;;;;6154043;23;20379;-82
2022/10/05 05:02:05;;;;;;;8.00;4.30;;;;;;;;;;6129351;23;20049;-79
2022/10/05 05:04:52;;;;;;;7.07;3.78;;;;;;;;;;6154575;23;20470;-82
2022/10/05 05:07:26;;;;;;;7.35;3.70;;;;;;;;;;6151606;23;20009;-80
2022/10/05 05:09:55;;;;;;;7.43;4.20;;;;;;;;;;6184506;23;20029;-79
2022/10/05 05:12:33;;;;;;;7.45;3.83;;;;;;;;;;6183603;23;20028;-82
2022/10/05 05:14:59;;;;;;;8.00;3.95;;;;;;;;;;6183912;23;20345;-78
2022/10/05 05:17:32;;;;;;;9.50;4.25;;;;;;;;;;6183144;23;20040;-77
2022/10/05 05:19:58;;;;;;;9.20;4.18;;;;;;;;;;6185047;23;20490;-84
2022/10/05 05:22:43;;;;;;;6.57;3.83;;;;;;;;;;6184670;23;20036;-78
2022/10/05 05:25:12;;;;;;;7.13;4.03;;;;;;;;;;6187328;23;20022;-79
2022/10/05 05:27:40;;;;;;;9.07;3.67;;;;;;;;;;6185008;23;20053;-79
2022/10/05 05:30:13;;;;;;;7.93;3.90;;;;;;;;;;6187290;23;20032;-78
2022/10/05 05:32:56;;;;;;;7.93;3.92;;;;;;;;;;6185945;23;20036;-79
2022/10/05 05:35:29;;;;;;;9.43;4.20;;;;;;;;;;6186762;23;20638;-79
2022/10/05 05:38:18;;;;;;;7.75;3.65;;;;;;;;;;6185415;23;20025;-79
2022/10/05 05:40:57;;;;;;;7.22;4.20;;;;;;;;;;6185828;23;20104;-80
2022/10/05 05:43:25;;;;;;;9.85;3.97;;;;;;;;;;6184647;23;20029;-79
2022/10/05 05:45:59;;;;;;;9.40;4.70;;;;;;;;;;6186298;23;20616;-79
2022/10/05 05:48:29;;;;;;;8.50;4.72;;;;;;;;;;6184943;23;20025;-80
2022/10/05 05:50:58;;;;;;;8.35;4.55;;;;;;;;;;6186042;23;20034;-80
2022/10/05 05:53:51;;;;;;;9.20;5.15;;;;;;;;;;6187916;23;20025;-79
2022/10/05 05:56:22;;;;;;;9.02;4.43;;;;;;;;;;6150969;23;20029;-79
2022/10/05 05:58:55;;;;;;;10.35;5.07;;;;;;;;;;6183912;23;20032;-79
2022/10/05 06:01:28;;;;;;;11.10;5.78;;;;;;;;;;6184787;23;20037;-80
2022/10/05 06:04:23;;;;;;;10.90;5.28;;;;;;;;;;6187512;23;20076;-81
2022/10/05 06:06:50;;;;;;;10.10;5.68;;;;;;;;;;6185249;23;20025;-81
2022/10/05 06:09:36;;;;;;;11.60;5.35;;;;;;;;;;6188498;23;20029;-81
2022/10/05 06:12:07;;;;;;;14.30;5.82;;;;;;;;;;6186720;23;20049;-82
2022/10/05 06:14:36;;;;;;;12.70;6.07;;;;;;;;;;6186387;23;20021;-81
2022/10/05 06:17:06;;;;;;;12.02;5.88;;;;;;;;;;6188409;23;20045;-82
2022/10/05 06:19:33;;;;;;;9.93;5.90;;;;;;;;;;6185788;23;20025;-80
2022/10/05 06:22:11;;;;;;;10.30;5.55;;;;;;;;;;6186104;23;20025;-80
2022/10/05 06:24:48;;;;;;;11.05;5.78;;;;;;;;;;6184322;23;20037;-80
2022/10/05 06:27:34;;;;;;;8.07;5.30;;;;;;;;;;6185225;23;20030;-80
2022/10/05 06:30:14;;;;;;;8.73;5.30;;;;;;;;;;6187479;23;20021;-80
2022/10/05 06:32:50;;;;;;;12.57;5.68;;;;;;;;;;6186322;23;20025;-80
2022/10/05 06:35:22;;;;;;;9.38;5.03;;;;;;;;;;6187720;23;20533;-79
2022/10/05 06:37:51;;;;;;;10.05;5.55;;;;;;;;;;6188645;23;20744;-80
2022/10/05 06:40:38;;;;;;;10.23;5.35;;;;;;;;;;6188980;23;20018;-80
2022/10/05 06:43:21;;;;;;;9.95;4.95;;;;;;;;;;6186039;23;20467;-80
2022/10/05 06:45:47;;;;;;;8.68;5.30;;;;;;;;;;6188531;23;20475;-81
2022/10/05 06:48:32;;;;;;;12.90;5.47;;;;;;;;;;6186722;23;20459;-80
2022/10/05 06:51:08;;;;;;;10.15;5.32;;;;;;;;;;6188919;23;20033;-79
2022/10/05 06:53:37;;;;;;;7.57;4.45;;;;;;;;;;6190353;23;20033;-82
2022/10/05 06:56:07;;;;;;;13.10;4.70;;;;;;;;;;6186876;23;20025;-80
2022/10/05 06:58:37;;;;;;;8.70;4.88;;;;;;;;;;6184974;23;20022;-80
2022/10/05 07:01:04;;;;;;;;;;;;;;;;;;6188899;23;20030;-80
2022/10/05 07:03:45;;;;;;;12.00;4.80;;;;;;;;;;6186628;23;47585;-81
2022/10/05 07:06:11;;;;;;;8.80;4.90;;;;;;;;;;6188023;23;20037;-81
2022/10/05 07:09:04;;;;;;;8.95;4.28;;;;;;;;;;6132636;23;20025;-80
2022/10/05 07:11:41;;;;;;;9.65;5.47;;;;;;;;;;6099280;23;20022;-80
2022/10/05 07:14:23;;;;;;;7.15;4.30;;;;;;;;;;6158066;23;20037;-81
2022/10/05 07:17:13;;;;;;;7.10;3.97;;;;;;;;;;6160106;23;20033;-81
2022/10/05 07:19:51;;;;;;;8.20;4.20;;;;;;;;;;6155523;23;20026;-79
2022/10/05 07:22:26;;;;;;;7.88;4.10;;;;;;;;;;6154677;23;20116;-79
2022/10/05 07:25:04;;;;;;;9.60;4.40;;;;;;;;;;6154610;23;20026;-78
2022/10/05 07:27:32;;;;;;;10.40;4.13;;;;;;;;;;6154109;23;20343;-80
2022/10/05 07:30:08;;;;;;;8.82;4.15;;;;;;;;;;6155068;23;20040;-80
2022/10/05 07:32:54;;;;;;;9.50;4.35;;;;;;;;;;6128810;23;20034;-80
2022/10/05 07:38:23;;;;;;;6.50;3.28;;;;;;;;;;6154388;23;20022;-81
2022/10/05 07:41:10;;;;;;;9.43;3.97;;;;;;;;;;6129883;23;20694;-81
2022/10/05 07:43:45;;;;;;;8.18;3.65;;;;;;;;;;6081810;23;20030;-80
2022/10/05 07:46:42;;;;;;;7.25;3.63;;;;;;;;;;6154077;23;20089;-80
2022/10/05 07:49:27;;;;;;;8.50;3.45;;;;;;;;;;6154923;23;20487;-81
2022/10/05 07:51:53;;;;;;;8.80;4.07;;;;;;;;;;6129172;23;20025;-81
2022/10/05 07:54:23;;;;;;;7.68;3.45;;;;;;;;;;6129138;23;20555;-80
2022/10/05 07:56:58;;;;;;;7.55;3.55;;;;;;;;;;6126624;23;20034;-81
2022/10/05 07:59:30;;;;;;;7.95;3.55;;;;;;;;;;6129113;23;20810;-79
2022/10/05 08:02:04;;;;;;;6.57;3.40;;;;;;;;;;6159849;23;20761;-80
2022/10/05 08:04:36;;;;;;;8.35;3.55;;;;;;;;;;6135095;23;20086;-81
2022/10/05 08:07:11;;;;;;;8.10;3.75;;;;;;;;;;6108741;23;1061798;-80
2022/10/05 08:09:59;;;;;;;10.57;3.85;;;;;;;;;;6189918;23;20014;-80
2022/10/05 08:12:49;;;;;;;6.13;3.38;;;;;;;;;;6185696;23;20021;-81
2022/10/05 08:15:21;;;;;;;7.63;4.00;;;;;;;;;;6181546;23;20037;-81
2022/10/05 08:18:01;;;;;;;8.35;3.63;;;;;;;;;;6179971;23;20465;-80
2022/10/05 08:20:34;;;;;;;9.00;3.80;;;;;;;;;;6183391;23;20033;-80
2022/10/05 08:23:04;;;;;;;7.30;3.70;;;;;;;;;;6185124;23;20084;-81
2022/10/05 08:25:39;;;;;;;12.90;4.25;;;;;;;;;;6184361;23;20067;-80
2022/10/05 08:28:13;;;;;;;8.95;4.03;;;;;;;;;;6186733;23;20025;-80
2022/10/05 08:30:58;;;;;;;7.50;3.42;;;;;;;;;;6187891;23;20025;-81
2022/10/05 08:33:26;;;;;;;7.50;3.60;;;;;;;;;;6186615;23;20030;-80
2022/10/05 08:36:00;;;;;;;8.60;3.58;;;;;;;;;;6184645;23;20025;-80
2022/10/05 08:38:31;;;;;;;6.78;3.60;;;;;;;;;;6185396;23;20419;-80
2022/10/05 08:41:10;;;;;;;8.88;3.53;;;;;;;;;;6184986;23;20028;-81
2022/10/05 08:43:36;;;;;;;10.15;3.63;;;;;;;;;;6185504;23;20025;-81
2022/10/05 08:46:11;;;;;;;6.65;3.63;;;;;;;;;;6185575;23;20029;-81
2022/10/05 08:48:41;;;;;;;6.18;3.25;;;;;;;;;;6184834;23;20022;-80
2022/10/05 08:51:10;;;;;;;8.63;3.58;;;;;;;;;;6187028;23;20029;-81
2022/10/05 08:53:49;;;;;;;7.40;3.58;;;;;;;;;;6186506;23;20041;-81
2022/10/05 08:56:28;;;;;;;6.82;3.10;;;;;;;;;;6185234;23;20611;-81
2022/10/05 08:59:09;;;;;;;6.72;3.67;;;;;;;;;;6186586;23;20035;-81
2022/10/05 09:01:38;;;;;;;8.27;3.85;;;;;;;;;;6184165;23;20072;-80
2022/10/05 09:04:08;;;;;;;7.13;3.60;;;;;;;;;;6185060;23;20502;-81
2022/10/05 09:06:43;;;;;;;6.68;3.60;;;;;;;;;;6178700;23;20037;-80
2022/10/05 09:09:19;;;;;;;7.43;3.40;;;;;;;;;;6130500;23;20821;-81
2022/10/05 09:12:04;;;;;;;10.63;3.40;;;;;;;;;;6131255;23;20360;-80
2022/10/05 09:14:43;;;;;;;5.38;2.92;;;;;;;;;;6130870;23;20018;-81
2022/10/05 09:17:32;;;;;;;7.45;3.38;;;;;;;;;;6154743;23;20044;-80
2022/10/05 09:20:13;;;;;;;6.63;3.70;;;;;;;;;;6157233;23;20037;-81
2022/10/05 09:22:58;;;;;;;5.38;2.90;;;;;;;;;;6156340;23;20026;-80
2022/10/05 09:25:34;;;;;;;5.13;3.30;;;;;;;;;;6130421;23;20037;-80
2022/10/05 09:28:11;;;;;;;5.97;3.50;;;;;;;;;;6129420;23;20034;-79
2022/10/05 09:30:55;;;;;;;7.28;3.47;;;;;;;;;;6130422;23;20898;-81
2022/10/05 09:33:39;;;;;;;6.10;2.80;;;;;;;;;;6156812;23;20109;-80
2022/10/05 09:36:18;;;;;;;5.43;2.88;;;;;;;;;;6131510;23;20018;-81
2022/10/05 09:39:05;;;;;;;5.30;2.90;;;;;;;;;;6156263;23;20037;-81
2022/10/05 09:41:54;;;;;;;4.97;2.58;;;;;;;;;;6156375;23;20022;-80
2022/10/05 09:44:33;;;;;;;6.38;2.60;;;;;;;;;;6130936;23;20101;-80
2022/10/05 09:47:26;;;;;;;7.15;2.53;;;;;;;;;;6129833;23;20029;-80
2022/10/05 09:50:12;;;;;;;6.65;2.60;;;;;;;;;;6129824;23;21161;-80
2022/10/05 09:52:38;;;;;;;7.15;2.88;;;;;;;;;;6130537;23;20391;-81
2022/10/05 09:55:27;;;;;;;8.20;2.92;;;;;;;;;;6130146;23;20030;-80
2022/10/05 09:57:53;;;;;;;5.82;2.90;;;;;;;;;;6155976;23;20037;-80
2022/10/05 10:00:22;;;;;;;5.70;2.78;;;;;;;;;;6155959;23;20059;-80
2022/10/05 10:03:07;;;;;;;6.07;2.78;;;;;;;;;;6130191;23;20033;-80
2022/10/05 10:05:53;;;;;;;5.65;2.90;;;;;;;;;;6130948;23;20030;-81
2022/10/05 10:08:22;;;;;;;7.03;2.80;;;;;;;;;;6178597;23;20029;-80
2022/10/05 10:10:52;;;;;;;5.32;2.63;;;;;;;;;;6185889;23;20026;-80
2022/10/05 10:13:22;;;;;;;6.95;2.80;;;;;;;;;;6185452;23;20037;-80
2022/10/05 10:16:00;;;;;;;5.78;2.95;;;;;;;;;;6185834;23;20057;-81
2022/10/05 10:18:27;;;;;;;6.97;2.97;;;;;;;;;;6182308;23;20025;-81
2022/10/05 10:20:56;;;;;;;5.20;2.70;;;;;;;;;;6184114;23;20092;-80
2022/10/05 10:23:41;;;;;;;6.50;3.25;;;;;;;;;;6184418;23;20029;-80
2022/10/05 10:26:23;;;;;;;6.65;2.80;;;;;;;;;;6183209;23;20037;-81
2022/10/05 10:29:01;;;;;;;6.30;3.10;;;;;;;;;;6187908;23;20031;-81
2022/10/05 10:31:38;;;;;;;7.13;3.17;;;;;;;;;;6191113;23;20010;-80
2022/10/05 10:34:17;;;;;;;6.03;3.10;;;;;;;;;;6189488;23;20025;-81
2022/10/05 10:36:46;;;;;;;6.57;3.28;;;;;;;;;;6189192;23;20017;-81
2022/10/05 10:39:20;;;;;;;10.90;3.30;;;;;;;;;;6189651;23;20036;-81
2022/10/05 10:41:49;;;;;;;6.30;3.08;;;;;;;;;;6187677;23;20112;-80
2022/10/05 10:44:25;;;;;;;8.20;3.20;;;;;;;;;;6186843;23;20032;-81
2022/10/05 10:47:11;;;;;;;7.75;3.40;;;;;;;;;;6187199;23;20030;-80
2022/10/05 10:49:56;;;;;;;7.78;4.03;;;;;;;;;;6170050;23;20030;-81
2022/10/05 10:52:23;;;;;;;8.80;3.35;;;;;;;;;;6186756;23;20021;-81
2022/10/05 10:55:04;;;;;;;7.32;3.25;;;;;;;;;;6187906;23;20022;-80
2022/10/05 10:57:39;;;;;;;6.47;3.40;;;;;;;;;;6186910;23;20029;-81
2022/10/05 11:00:41;;;;;;;5.50;3.30;;;;;;;;;;6184977;23;20040;-81
2022/10/05 11:03:26;;;;;;;6.55;3.45;;;;;;;;;;6095582;23;20031;-81
2022/10/05 11:05:55;;;;;;;9.50;3.38;;;;;;;;;;6177617;23;20088;-79
2022/10/05 11:08:53;;;;;;;9.15;3.42;;;;;;;;;;6182791;23;20127;-78
2022/10/05 11:11:29;;;;;;;9.90;3.60;;;;;;;;;;6134598;23;20022;-80
2022/10/05 11:14:09;;;;;;;6.20;2.72;;;;;;;;;;6185579;23;20021;-81
2022/10/05 11:16:44;;;;;;;8.23;3.05;;;;;;;;;;6186429;23;20029;-81
2022/10/05 11:19:19;;;;;;;6.03;2.97;;;;;;;;;;6187654;23;20033;-80
2022/10/05 11:22:03;;;;;;;5.85;3.17;;;;;;;;;;6188142;23;20034;-80
2022/10/05 11:24:37;;;;;;;5.65;2.78;;;;;;;;;;6186592;23;20033;-81
2022/10/05 11:27:22;;;;;;;9.00;3.08;;;;;;;;;;6187694;23;20028;-81
2022/10/05 11:30:02;;;;;;;6.28;3.03;;;;;;;;;;6183459;23;20037;-81
2022/10/05 11:32:31;;;;;;;7.88;2.92;;;;;;;;;;6186113;23;20025;-81
2022/10/05 11:35:33;;;;;;;9.57;3.17;;;;;;;;;;6185561;23;20645;-79
2022/10/05 11:37:59;;;;;;;6.78;2.72;;;;;;;;;;6093118;23;20042;-81
2022/10/05 11:40:42;;;;;;;9.00;3.00;;;;;;;;;;6161614;23;20033;-80
2022/10/05 11:43:27;;;;;;;6.88;2.95;;;;;;;;;;6186238;23;20553;-80
2022/10/05 11:46:07;;;;;;;5.15;2.72;;;;;;;;;;6187226;23;20025;-81
2022/10/05 11:48:39;;;;;;;6.90;2.60;;;;;;;;;;6186542;23;20071;-80
2022/10/05 11:51:24;;;;;;;6.97;2.60;;;;;;;;;;6187405;23;20033;-81
2022/10/05 11:54:11;;;;;;;6.65;2.95;;;;;;;;;;6187323;23;20035;-80
2022/10/05 11:56:40;;;;;;;5.60;2.70;;;;;;;;;;6185735;23;20047;-80
2022/10/05 11:59:18;;;;;;;4.50;2.28;;;;;;;;;;6185383;23;20030;-80
2022/10/05 12:02:04;;;;;;;6.38;2.30;;;;;;;;;;6185513;23;20589;-80
2022/10/05 12:04:48;;;;;;;6.38;2.60;;;;;;;;;;6185774;23;20108;-81
2022/10/05 12:07:22;;;;;;;9.00;2.58;;;;;;;;;;6185579;23;20029;-81
2022/10/05 12:12:38;;;;;;;4.88;2.40;;;;;;;;;;6186967;23;20013;-81
2022/10/05 12:15:07;;;;;;;5.00;2.55;;;;;;;;;;6185244;23;20035;-80
2022/10/05 12:17:33;;;;;;;7.18;2.40;;;;;;;;;;6186893;23;20487;-81
2022/10/05 12:20:11;;;;;;;7.43;2.53;;;;;;;;;;6187894;23;20813;-80
2022/10/05 12:22:41;;;;;;;8.45;2.70;;;;;;;;;;6183612;23;20383;-80
2022/10/05 12:25:10;;;;;;;4.83;2.47;;;;;;;;;;6186070;23;20028;-80
2022/10/05 12:27:38;;;;;;;4.75;2.47;;;;;;;;;;6186120;23;20049;-79
2022/10/05 12:30:12;;;;;;;4.63;2.50;;;;;;;;;;6183497;23;20403;-80
2022/10/05 12:32:52;;;;;;;6.00;2.80;;;;;;;;;;6185192;23;20014;-80
2022/10/05 12:35:24;;;;;;;6.35;2.63;;;;;;;;;;6186760;23;20080;-81
2022/10/05 12:38:31;;;;;;;5.75;3.00;;;;;;;;;;6185209;23;20030;-80
2022/10/05 12:41:00;;;;;;;5.35;3.03;;;;;;;;;;6169647;23;20079;-79
2022/10/05 12:43:36;;;;;;;6.03;2.80;;;;;;;;;;6186081;23;20446;-80
2022/10/05 12:46:07;;;;;;;4.70;2.70;;;;;;;;;;6185014;23;20026;-79
2022/10/05 12:48:42;;;;;;;10.52;2.90;;;;;;;;;;6184313;23;20065;-80
2022/10/05 12:51:26;;;;;;;4.88;2.42;;;;;;;;;;6184266;23;20024;-80
2022/10/05 12:54:01;;;;;;;7.18;2.75;;;;;;;;;;6185849;23;20740;-79
2022/10/05 12:56:40;;;;;;;5.65;2.75;;;;;;;;;;6183919;23;20108;-78
2022/10/05 12:59:19;;;;;;;5.43;2.83;;;;;;;;;;6186512;23;20352;-79
2022/10/05 13:01:48;;;;;;;7.13;3.08;;;;;;;;;;6184027;23;20010;-80
2022/10/05 13:04:15;;;;;;;9.68;2.85;;;;;;;;;;6185917;23;20026;-79
2022/10/05 13:06:50;;;;;;;6.97;2.90;;;;;;;;;;6180645;23;20034;-80
2022/10/05 13:09:21;;;;;;;6.82;2.92;;;;;;;;;;6156249;23;20034;-80
2022/10/05 13:11:48;;;;;;;6.93;3.30;;;;;;;;;;6155670;23;20046;-80
2022/10/05 13:14:21;;;;;;;7.90;3.05;;;;;;;;;;6130740;23;20037;-80
2022/10/05 13:16:54;;;;;;;5.75;3.10;;;;;;;;;;6155367;23;20053;-79
2022/10/05 13:19:33;;;;;;;6.90;3.45;;;;;;;;;;6154790;23;20482;-79
2022/10/05 13:22:11;;;;;;;8.07;3.13;;;;;;;;;;6129173;23;20034;-79
2022/10/05 13:24:44;;;;;;;5.65;2.97;;;;;;;;;;6129972;23;20026;-78
2022/10/05 13:27:21;;;;;;;5.25;3.00;;;;;;;;;;6129638;23;20030;-79
2022/10/05 13:29:54;;;;;;;7.75;2.90;;;;;;;;;;6128304;23;20042;-79
2022/10/05 13:32:25;;;;;;;7.45;3.00;;;;;;;;;;6130295;23;20061;-79
2022/10/05 13:34:52;;;;;;;6.90;3.13;;;;;;;;;;6129747;23;20030;-78
2022/10/05 13:37:33;;;;;;;7.63;3.17;;;;;;;;;;6129763;23;20030;-78
2022/10/05 13:40:20;;;;;;;5.38;2.83;;;;;;;;;;6130145;23;20026;-79
2022/10/05 13:42:58;;;;;;;5.43;2.85;;;;;;;;;;6130217;23;20026;-78
2022/10/05 13:45:26;;;;;;;5.63;3.05;;;;;;;;;;6157131;23;20036;-78
2022/10/05 13:48:04;;;;;;;6.57;2.75;;;;;;;;;;6128992;23;20092;-79
2022/10/05 13:50:58;;;;;;;7.47;2.97;;;;;;;;;;6157905;23;20014;-79
2022/10/05 13:53:46;;;;;;;6.78;2.75;;;;;;;;;;6131837;23;20028;-78
2022/10/05 13:56:13;;;;;;;7.03;2.80;;;;;;;;;;6155955;23;20117;-78
2022/10/05 13:59:18;;;;;;;9.80;2.40;;;;;;;;;;6157953;23;20026;-78
2022/10/05 14:01:50;;;;;;;6.80;2.80;;;;;;;;;;6038186;23;20039;-80
2022/10/05 14:04:21;;;;;;;6.70;2.80;;;;;;;;;;6013968;23;20035;-80
2022/10/05 14:06:48;;;;;;;8.32;2.72;;;;;;;;;;6101547;23;20078;-82
2022/10/05 14:09:20;;;;;;;8.43;2.90;;;;;;;;;;6156856;23;20929;-82
2022/10/05 14:11:48;;;;;;;4.78;2.63;;;;;;;;;;6157347;23;20014;-79
2022/10/05 14:14:26;;;;;;;6.93;2.63;;;;;;;;;;6132439;23;20032;-80
2022/10/05 14:16:54;;;;;;;7.15;2.78;;;;;;;;;;6132346;23;20022;-81
2022/10/05 14:19:44;;;;;;;5.80;2.67;;;;;;;;;;6130527;23;20877;-81
2022/10/05 14:22:13;;;;;;;5.35;2.90;;;;;;;;;;6119767;23;20037;-80
2022/10/05 14:25:05;;;;;;;6.32;2.50;;;;;;;;;;6131050;23;20063;-79
2022/10/05 14:27:34;;;;;;;6.65;2.30;;;;;;;;;;6127592;23;20029;-81
2022/10/05 14:30:15;;;;;;;5.78;2.50;;;;;;;;;;6132077;23;20032;-80
2022/10/05 14:32:46;;;;;;;5.03;2.33;;;;;;;;;;6131992;23;20799;-80
2022/10/05 14:35:14;;;;;;;4.38;2.30;;;;;;;;;;6155806;23;20033;-81
2022/10/05 14:37:49;;;;;;;6.95;2.40;;;;;;;;;;6131502;23;20052;-81
2022/10/05 14:40:35;;;;;;;6.00;2.30;;;;;;;;;;6157691;23;20033;-82
2022/10/05 14:43:10;;;;;;;5.72;2.30;;;;;;;;;;6131662;23;20518;-83
2022/10/05 14:45:50;;;;;;;6.30;2.33;;;;;;;;;;6157540;23;20479;-79
2022/10/05 14:48:17;;;;;;;4.95;2.20;;;;;;;;;;6129814;23;20026;-80
2022/10/05 14:50:51;;;;;;;8.18;2.35;;;;;;;;;;6157772;23;20030;-80
2022/10/05 14:53:20;;;;;;;5.70;2.17;;;;;;;;;;6157980;23;20018;-79
2022/10/05 14:55:54;;;;;;;5.20;1.90;;;;;;;;;;6158500;23;20029;-80
2022/10/05 14:58:40;;;;;;;6.15;2.20;;;;;;;;;;6157464;23;20450;-80
2022/10/05 15:01:12;;;;;;;5.47;1.95;;;;;;;;;;6132654;23;20045;-81
2022/10/05 15:03:51;;;;;;;8.13;2.17;;;;;;;;;;6132995;23;20064;-81
2022/10/05 15:06:21;;;;;;;5.13;1.98;;;;;;;;;;6132921;23;20033;-79
2022/10/05 15:09:06;;;;;;;5.85;2.03;;;;;;;;;;6133012;23;20954;-80
2022/10/05 15:11:48;;;;;;;5.30;2.05;;;;;;;;;;6159462;23;20073;-78
2022/10/05 15:14:34;;;;;;;4.82;2.00;;;;;;;;;;6132382;23;20687;-80
2022/10/05 15:17:12;;;;;;;5.38;1.88;;;;;;;;;;6131989;23;20473;-80
2022/10/05 15:20:05;;;;;;;6.60;2.30;;;;;;;;;;6157485;23;20082;-81
2022/10/05 15:22:50;;;;;;;5.88;2.13;;;;;;;;;;6150166;23;20029;-80
2022/10/05 15:25:29;;;;;;;5.82;2.10;;;;;;;;;;6130494;23;20026;-81
2022/10/05 15:28:10;;;;;;;5.65;1.98;;;;;;;;;;6130390;23;20176;-80
2022/10/05 15:30:36;;;;;;;;;;;;;;;;;;6157048;23;20034;-81
2022/10/05 15:33:07;;;;;;;5.72;2.28;;;;;;;;;;6155834;23;43539;-79
2022/10/05 15:35:46;;;;;;;8.35;2.33;;;;;;;;;;6155600;23;20033;-80